Flight Track Log - Related Links

Times and Time Zones

All times are in EST time to prevent confusion due to time zone crossing. See the CSH9224 flight status page for this flight to view local times or setup timezone preferences in your user account.

Time Position Orientation Groundspeed Altitude Reporting Facility
EST Latitude Longitude Course Direction KTS MPH feet Rate Location/Type
Thu 09:04:00 AM 38.1634 80.9760 38° Northeast  Level Estimated
Thu 09:05:00 AM 38.2434 81.0566 38° Northeast  Level Estimated
Thu 09:06:00 AM 38.3233 81.1375 38° Northeast  Level Estimated
Thu 09:07:00 AM 38.4031 81.2185 38° Northeast  Level Estimated
Thu 09:08:00 AM 38.4829 81.2997 39° Northeast  Level Estimated
Thu 09:09:00 AM 38.5626 81.3810 39° Northeast  Level Estimated
Thu 09:10:00 AM 38.6423 81.4626 39° Northeast  Level Estimated
Thu 09:11:00 AM 38.7219 81.5443 39° Northeast  Level Estimated
Thu 09:12:00 AM 38.8015 81.6262 39° Northeast  Level Estimated
Thu 09:13:00 AM 38.8810 81.7083 39° Northeast  Level Estimated
Thu 09:14:00 AM 38.9604 81.7906 39° Northeast  Level Estimated
Thu 09:15:00 AM 39.0398 81.8731 39° Northeast  Level Estimated
Thu 09:16:00 AM 39.1191 81.9558 39° Northeast  Level Estimated
Thu 09:17:00 AM 39.1984 82.0386 39° Northeast  Level Estimated
Thu 09:18:00 AM 39.2776 82.1216 39° Northeast  Level Estimated
Thu 09:19:00 AM 39.3567 82.2048 39° Northeast  Level Estimated
Thu 09:20:00 AM 39.4358 82.2883 39° Northeast  Level Estimated
Thu 09:21:00 AM 39.5149 82.3718 39° Northeast  Level Estimated
Thu 09:22:00 AM 39.5938 82.4556 39° Northeast  Level Estimated
Thu 09:23:00 AM 39.6727 82.5396 39° Northeast  Level Estimated
Thu 09:24:00 AM 39.7516 82.6238 39° Northeast  Level Estimated
Thu 09:25:00 AM 39.8304 82.7082 39° Northeast  Level Estimated
Thu 09:26:00 AM 39.9091 82.7927 39° Northeast  Level Estimated
Thu 09:27:00 AM 39.9878 82.8774 40° Northeast  Level Estimated
Thu 09:28:00 AM 40.0663 82.9624 40° Northeast  Level Estimated
Thu 09:29:00 AM 40.1449 83.0475 40° Northeast  Level Estimated
Thu 09:30:00 AM 40.2234 83.1329 40° Northeast  Level Estimated
Thu 09:31:00 AM 40.3018 83.2184 40° Northeast  Level Estimated
Thu 09:32:00 AM 40.3801 83.3041 40° Northeast  Level Estimated
Thu 09:33:00 AM 40.4584 83.3901 40° Northeast  Level Estimated
Thu 09:34:00 AM 40.5366 83.4762 40° Northeast  Level Estimated
Thu 09:35:00 AM 40.6148 83.5625 40° Northeast  Level Estimated
Thu 09:36:00 AM 40.6929 83.6491 40° Northeast  Level Estimated
Thu 09:37:00 AM 40.7709 83.7358 40° Northeast  Level Estimated
Thu 09:38:00 AM 40.8489 83.8228 40° Northeast  Level Estimated
Thu 09:39:00 AM 40.9268 83.9099 40° Northeast  Level Estimated
Thu 09:40:00 AM 41.0046 83.9973 40° Northeast  Level Estimated
Thu 09:41:00 AM 41.0824 84.0848 40° Northeast  Level Estimated
Thu 09:42:00 AM 41.1601 84.1726 40° Northeast  Level Estimated
Thu 09:43:00 AM 41.2377 84.2606 40° Northeast  Level Estimated
Thu 09:44:00 AM 41.3153 84.3488 40° Northeast  Level Estimated
Thu 09:45:00 AM 41.3928 84.4372 41° Northeast  Level Estimated
Thu 09:46:00 AM 41.4702 84.5258 41° Northeast  Level Estimated
Thu 09:47:00 AM 41.5476 84.6146 41° Northeast  Level Estimated
Thu 09:48:00 AM 41.6249 84.7036 41° Northeast  Level Estimated
Thu 09:49:00 AM 41.7021 84.7929 41° Northeast  Level Estimated
Thu 09:50:00 AM 41.7793 84.8823 41° Northeast  Level Estimated
Thu 09:51:00 AM 41.8564 84.9720 41° Northeast  Level Estimated
Thu 09:52:00 AM 41.9334 85.0619 41° Northeast  Level Estimated
Thu 09:53:00 AM 42.0103 85.1520 41° Northeast  Level Estimated
Thu 09:54:00 AM 42.0872 85.2423 41° Northeast  Level Estimated
Thu 09:55:00 AM 42.1640 85.3329 41° Northeast  Level Estimated
Thu 09:56:00 AM 42.2408 85.4237 41° Northeast  Level Estimated
Thu 09:57:00 AM 42.3174 85.5147 41° Northeast  Level Estimated
Thu 09:58:00 AM 42.3940 85.6059 41° Northeast  Level Estimated
Thu 09:59:00 AM 42.4705 85.6973 41° Northeast  Level Estimated
Thu 10:00:00 AM 42.5470 85.7890 41° Northeast  Level Estimated
Thu 10:01:00 AM 42.6233 85.8808 42° Northeast  Level Estimated
Thu 10:02:00 AM 42.6996 85.9730 42° Northeast  Level Estimated
Thu 10:03:00 AM 42.7759 86.0653 42° Northeast  Level Estimated
Thu 10:04:00 AM 42.8520 86.1578 42° Northeast  Level Estimated
Thu 10:05:00 AM 42.9281 86.2506 42° Northeast  Level Estimated
Thu 10:06:00 AM 43.0041 86.3437 42° Northeast  Level Estimated
Thu 10:07:00 AM 43.0800 86.4369 42° Northeast  Level Estimated
Thu 10:08:00 AM 43.1559 86.5304 42° Northeast  Level Estimated
Thu 10:09:00 AM 43.2317 86.6241 42° Northeast  Level Estimated
Thu 10:10:00 AM 43.3074 86.7180 42° Northeast  Level Estimated
Thu 10:11:00 AM 43.3830 86.8122 42° Northeast  Level Estimated
Thu 10:12:00 AM 43.4585 86.9066 42° Northeast  Level Estimated
Thu 10:13:00 AM 43.5340 87.0013 42° Northeast  Level Estimated
Thu 10:14:00 AM 43.6094 87.0962 42° Northeast  Level Estimated
Thu 10:15:00 AM 43.6847 87.1913 42° Northeast  Level Estimated
Thu 10:16:00 AM 43.7599 87.2867 42° Northeast  Level Estimated
Thu 10:17:00 AM 43.8351 87.3823 43° Northeast  Level Estimated
Thu 10:18:00 AM 43.9071 87.4742 43° Northeast  Level Estimated
Thu 10:19:00 AM 43.9071 87.4742 144° Southeast  Level Estimated
Thu 10:20:00 AM 43.9071 87.4742 144° Southeast  Level Estimated
Thu 10:21:00 AM 43.9071 87.4742 144° Southeast  Level Estimated
Thu 10:22:00 AM 43.9071 87.4742 144° Southeast  Level Estimated
Thu 10:23:00 AM 43.9071 87.4742 144° Southeast  Level Estimated
Thu 10:24:00 AM 43.9071 87.4742 144° Southeast  Level Estimated
Thu 10:25:00 AM 43.9071 87.4742 144° Southeast  Level Estimated
Thu 10:26:00 AM 43.9071 87.4742 144° Southeast  Level Estimated

Login

Don't have an account? Register now (free) for customized features, flight alerts, and more!